Time;durP1;ratioP1;P1;durP2;ratioP2;P2;SDS_P1;SDS_P2;PMS_P1;PMS_P2;Temp;Humidity;BMP_temperature;BMP_pressure;BME280_temperature;BME280_humidity;BME280_pressure;Samples;Min_cycle;Max_cycle;Signal;HPM_P1;HPM_P2
2023/01/12 00:01:52;;;;;;;5.33;3.17;;;;;;;3.27;100.00;97325.81;5033455;28;20200;-72
2023/01/12 00:04:20;;;;;;;5.27;2.60;;;;;;;3.29;100.00;97336.16;5039708;28;20260;-72
2023/01/12 00:06:48;;;;;;;6.60;2.60;;;;;;;3.29;100.00;97330.91;5044855;28;20214;-74
2023/01/12 00:09:15;;;;;;;3.90;2.60;;;;;;;3.19;100.00;97331.69;5032495;28;20230;-72
2023/01/12 00:11:43;;;;;;;4.67;2.60;;;;;;;3.16;100.00;97331.97;5041938;28;20206;-74
2023/01/12 00:14:11;;;;;;;2.43;2.17;;;;;;;3.07;100.00;97321.50;5039817;28;20621;-72
2023/01/12 00:16:40;;;;;;;3.83;2.30;;;;;;;3.11;100.00;97322.88;5019417;28;20527;-73
2023/01/12 00:19:14;;;;;;;5.90;2.30;;;;;;;3.08;100.00;97321.34;5050297;28;20585;-72
2023/01/12 00:21:52;;;;;;;5.60;2.67;;;;;;;3.13;100.00;97303.44;5045213;28;20780;-74
2023/01/12 00:24:20;;;;;;;3.50;2.17;;;;;;;3.19;100.00;97321.22;5037200;28;20232;-72
2023/01/12 00:26:48;;;;;;;6.23;2.90;;;;;;;3.21;100.00;97326.34;5036253;28;20206;-73
2023/01/12 00:29:16;;;;;;;2.60;2.40;;;;;;;3.12;100.00;97335.81;5033031;28;20228;-72
2023/01/12 00:31:45;;;;;;;3.97;2.30;;;;;;;2.89;100.00;97330.78;4991858;28;20876;-73
2023/01/12 00:34:14;;;;;;;2.50;2.30;;;;;;;2.92;100.00;97339.34;5039315;28;20415;-72
2023/01/12 00:36:41;;;;;;;5.37;2.40;;;;;;;2.86;100.00;97340.69;5043819;28;20926;-72
2023/01/12 00:39:09;;;;;;;4.10;2.50;;;;;;;2.85;100.00;97339.88;5047008;28;20408;-72
2023/01/12 00:47:09;;;;;;;2.83;2.40;;;;;;;2.84;100.00;97351.31;4991504;28;20208;-72
2023/01/12 00:49:37;;;;;;;3.73;3.43;;;;;;;2.81;100.00;97350.72;4981207;28;20227;-71
2023/01/12 00:52:06;;;;;;;3.07;2.57;;;;;;;2.71;100.00;97338.44;5039492;28;20210;-73
2023/01/12 00:54:36;;;;;;;4.13;2.50;;;;;;;2.61;100.00;97342.75;5019331;28;20211;-72
2023/01/12 00:57:04;;;;;;;2.53;2.33;;;;;;;2.45;100.00;97343.22;5035408;28;20302;-73
2023/01/12 00:59:31;;;;;;;3.00;2.60;;;;;;;2.44;100.00;97339.78;5023879;28;20226;-72
2023/01/12 01:01:59;;;;;;;4.10;2.90;;;;;;;2.42;100.00;97344.31;5039870;28;20207;-70
2023/01/12 01:04:28;;;;;;;4.00;2.47;;;;;;;2.52;100.00;97359.25;4983415;28;20308;-72
2023/01/12 01:06:56;;;;;;;3.33;2.60;;;;;;;2.67;100.00;97355.34;5033462;28;20203;-72
2023/01/12 01:09:23;;;;;;;3.87;2.73;;;;;;;2.72;100.00;97350.56;5024577;28;20224;-73
2023/01/12 01:11:51;;;;;;;3.70;2.73;;;;;;;2.68;100.00;97356.16;5036752;28;20394;-72
2023/01/12 01:14:18;;;;;;;2.73;2.30;;;;;;;2.80;100.00;97355.13;5006598;28;20471;-74
2023/01/12 01:16:46;;;;;;;2.60;2.40;;;;;;;2.88;100.00;97355.31;5026886;28;20447;-73
2023/01/12 01:19:13;;;;;;;7.73;2.93;;;;;;;2.77;100.00;97367.66;4995604;28;21786;-70
2023/01/12 01:21:42;;;;;;;3.87;2.33;;;;;;;2.83;100.00;97347.00;5043791;28;20203;-72
2023/01/12 01:24:11;;;;;;;3.43;2.33;;;;;;;2.80;100.00;97362.97;5040328;28;20746;-73
2023/01/12 01:26:39;;;;;;;2.60;2.40;;;;;;;2.94;100.00;97351.31;5044189;28;20222;-73
2023/01/12 01:29:07;;;;;;;7.63;3.47;;;;;;;2.83;100.00;97347.00;5023240;28;20234;-74
2023/01/12 01:31:35;;;;;;;5.23;2.43;;;;;;;2.69;100.00;97345.59;5043886;28;20241;-73
2023/01/12 01:34:03;;;;;;;5.53;2.43;;;;;;;2.74;100.00;97356.47;4988428;28;20206;-71
2023/01/12 01:36:31;;;;;;;6.30;2.60;;;;;;;2.75;100.00;97352.06;5042079;28;20575;-72
2023/01/12 01:39:00;;;;;;;5.17;3.30;;;;;;;2.91;100.00;97356.00;5031652;28;20258;-70
2023/01/12 01:41:29;;;;;;;3.20;2.63;;;;;;;2.79;100.00;97350.84;5045128;28;20514;-73
2023/01/12 01:43:59;;;;;;;2.70;2.30;;;;;;;2.81;100.00;97350.72;5026629;28;20195;-73
2023/01/12 01:46:34;;;;;;;3.57;2.40;;;;;;;2.80;100.00;97352.50;5042844;28;20420;-73
2023/01/12 01:49:09;;;;;;;4.40;2.70;;;;;;;2.84;100.00;97347.84;5042015;28;20740;-73
2023/01/12 01:51:39;;;;;;;3.73;3.03;;;;;;;2.87;100.00;97351.03;4994712;28;20620;-72
2023/01/12 01:54:08;;;;;;;4.70;3.17;;;;;;;2.81;100.00;97348.91;5037295;28;20211;-73
2023/01/12 01:56:36;;;;;;;4.63;2.83;;;;;;;2.80;100.00;97355.13;5040901;28;20219;-73
2023/01/12 01:59:06;;;;;;;3.40;2.80;;;;;;;2.81;100.00;97348.91;5023217;28;20437;-70
2023/01/12 02:01:34;;;;;;;6.00;2.80;;;;;;;2.82;100.00;97347.16;5042176;28;20457;-72
2023/01/12 02:04:02;;;;;;;6.30;2.60;;;;;;;2.80;100.00;97352.50;5033424;28;20256;-74
2023/01/12 02:06:30;;;;;;;8.00;3.03;;;;;;;2.85;100.00;97352.97;4995167;28;20636;-72
2023/01/12 02:08:59;;;;;;;9.60;3.30;;;;;;;2.90;100.00;97347.31;5029567;28;20224;-71
2023/01/12 02:17:08;;;;;;;6.67;3.67;;;;;;;3.15;100.00;97351.25;5022344;28;20218;-70
2023/01/12 02:19:49;;;;;;;7.57;2.70;;;;;;;3.12;100.00;97343.66;5036606;28;20710;-72
2023/01/12 02:22:45;;;;;;;6.43;2.87;;;;;;;3.14;100.00;97343.56;4989610;28;20211;-72
2023/01/12 02:25:24;;;;;;;5.10;2.60;;;;;;;3.14;100.00;97338.31;5043639;28;20435;-73
2023/01/12 02:28:15;;;;;;;3.73;2.57;;;;;;;3.14;100.00;97338.31;5039681;28;20198;-71
2023/01/12 02:31:03;;;;;;;5.27;3.20;;;;;;;3.16;100.00;97345.06;5028375;28;20776;-71
2023/01/12 02:33:38;;;;;;;7.03;2.70;;;;;;;3.17;100.00;97345.91;5042486;28;20210;-73
2023/01/12 02:36:10;;;;;;;5.23;2.97;;;;;;;3.14;100.00;97346.97;5041165;28;20466;-72
2023/01/12 02:38:42;;;;;;;5.10;3.10;;;;;;;3.10;100.00;97342.97;5001849;28;20748;-72
2023/01/12 02:42:39;;;;;;;5.60;2.63;;;;;;;3.14;100.00;97346.97;5042550;28;20426;-71
2023/01/12 02:44:08;;;;;;;2.33;2.10;;;;;;;3.09;100.00;97341.31;5035419;28;20338;-71
2023/01/12 02:46:38;;;;;;;6.10;3.20;;;;;;;3.09;100.00;97340.50;5021120;28;20207;-72
2023/01/12 02:49:09;;;;;;;4.00;2.20;;;;;;;3.06;100.00;97341.59;5042984;28;20231;-73
2023/01/12 02:51:41;;;;;;;5.40;2.63;;;;;;;3.02;100.00;97342.81;5034973;28;20606;-73
2023/01/12 02:54:10;;;;;;;2.60;2.30;;;;;;;2.98;100.00;97330.97;4994539;28;20237;-70
2023/01/12 02:56:42;;;;;;;6.20;2.57;;;;;;;2.97;100.00;97331.91;4987904;28;20212;-72
2023/01/12 02:59:14;;;;;;;6.33;3.03;;;;;;;2.96;100.00;97338.13;5023452;28;20235;-72
2023/01/12 03:01:44;;;;;;;4.23;2.97;;;;;;;2.95;100.00;97326.81;5037771;28;20405;-72
2023/01/12 03:04:14;;;;;;;5.47;2.90;;;;;;;3.01;100.00;97328.88;5019114;28;20210;-74
2023/01/12 03:06:45;;;;;;;4.43;2.97;;;;;;;3.06;100.00;97332.91;5035616;28;20642;-72
2023/01/12 03:09:14;;;;;;;4.90;2.37;;;;;;;3.04;100.00;97325.19;5043904;28;20429;-71
2023/01/12 03:11:43;;;;;;;2.87;2.60;;;;;;;3.08;100.00;97312.66;4996974;28;21409;-71
2023/01/12 03:14:11;;;;;;;4.87;2.87;;;;;;;3.09;100.00;97304.66;5044947;28;20238;-72
2023/01/12 03:16:39;;;;;;;3.43;2.40;;;;;;;3.14;100.00;97307.72;5043647;28;20452;-72
2023/01/12 03:19:11;;;;;;;2.50;2.30;;;;;;;3.12;100.00;97293.13;5031338;28;20230;-71
2023/01/12 03:21:40;;;;;;;5.03;2.57;;;;;;;3.06;100.00;97278.75;5033766;28;20198;-72
2023/01/12 03:24:09;;;;;;;3.57;2.77;;;;;;;3.00;100.00;97281.91;5050834;28;20201;-71
2023/01/12 03:26:40;;;;;;;2.47;2.17;;;;;;;2.82;100.00;97261.59;5042942;28;20204;-73
2023/01/12 03:29:12;;;;;;;5.73;3.03;;;;;;;2.79;100.00;97274.94;5001038;28;20849;-72
2023/01/12 03:31:40;;;;;;;4.10;2.60;;;;;;;2.72;100.00;97273.81;5040162;28;20231;-73
2023/01/12 03:34:10;;;;;;;3.37;2.43;;;;;;;2.80;100.00;97274.00;5050193;28;20203;-69
2023/01/12 03:36:45;;;;;;;4.50;2.43;;;;;;;2.85;100.00;97290.16;5026629;28;20199;-72
2023/01/12 03:39:17;;;;;;;2.50;2.30;;;;;;;2.86;100.00;97286.56;5040477;28;20713;-72
2023/01/12 03:41:54;;;;;;;2.70;2.20;;;;;;;2.88;100.00;97289.03;5032881;28;20396;-72
2023/01/12 03:44:28;;;;;;;4.10;2.57;;;;;;;2.80;100.00;97281.84;4999855;28;20215;-72
2023/01/12 03:46:59;;;;;;;4.80;2.70;;;;;;;2.71;100.00;97273.00;5046497;28;20678;-72
2023/01/12 03:49:32;;;;;;;2.50;2.30;;;;;;;2.61;100.00;97253.81;5032052;28;20235;-72
2023/01/12 03:52:02;;;;;;;3.30;2.70;;;;;;;2.65;100.00;97268.31;5043932;28;20235;-72
2023/01/12 03:54:30;;;;;;;4.07;2.33;;;;;;;2.60;100.00;97271.31;5044812;28;20203;-72
2023/01/12 03:56:59;;;;;;;4.07;2.40;;;;;;;2.49;100.00;97263.56;5046936;28;20221;-72
2023/01/12 03:59:27;;;;;;;3.63;2.87;;;;;;;2.42;100.00;97259.78;4997393;28;20237;-72
2023/01/12 04:01:54;;;;;;;3.73;2.43;;;;;;;2.36;100.00;97262.94;5044902;28;20233;-70
2023/01/12 04:04:22;;;;;;;7.60;2.80;;;;;;;2.22;100.00;97277.16;5037150;28;20312;-72
2023/01/12 04:06:51;;;;;;;3.80;2.70;;;;;;;2.10;100.00;97273.81;5018769;28;20294;-71
2023/01/12 04:09:21;;;;;;;4.70;2.70;;;;;;;2.12;100.00;97277.13;5042941;28;20226;-71
2023/01/12 04:14:34;;;;;;;13.00;3.33;;;;;;;2.12;100.00;97269.28;5000539;28;20207;-72
2023/01/12 04:17:02;;;;;;;5.17;3.23;;;;;;;2.11;100.00;97278.09;5046031;28;20704;-72
2023/01/12 04:19:29;;;;;;;3.63;3.33;;;;;;;2.10;100.00;97271.22;5041324;28;20223;-72
2023/01/12 04:24:44;;;;;;;3.43;3.23;;;;;;;2.09;100.00;97274.78;5044370;28;20206;-70
2023/01/12 04:27:11;;;;;;;6.87;3.83;;;;;;;2.16;100.00;97276.72;5021122;28;20690;-71
2023/01/12 04:29:39;;;;;;;5.60;4.37;;;;;;;2.17;100.00;97272.34;4995910;28;20237;-72
2023/01/12 04:32:07;;;;;;;6.10;4.20;;;;;;;2.14;100.00;97275.22;5039811;28;20222;-74
2023/01/12 04:34:34;;;;;;;6.87;3.73;;;;;;;2.07;100.00;97264.44;5031573;28;21056;-73
2023/01/12 04:37:04;;;;;;;3.63;3.23;;;;;;;2.09;100.00;97262.53;5023354;28;20537;-72
2023/01/12 04:39:31;;;;;;;4.13;3.73;;;;;;;2.03;100.00;97263.84;5027499;28;20232;-74
2023/01/12 04:41:59;;;;;;;4.13;3.50;;;;;;;1.98;100.00;97252.97;5044391;28;20580;-73
2023/01/12 04:44:27;;;;;;;3.80;3.50;;;;;;;2.01;100.00;97260.53;4994719;28;20245;-73
2023/01/12 04:46:54;;;;;;;6.90;3.90;;;;;;;1.92;100.00;97250.88;5042524;28;20634;-73
2023/01/12 04:49:22;;;;;;;6.40;4.17;;;;;;;1.95;100.00;97255.81;5044559;28;20226;-73
2023/01/12 04:51:50;;;;;;;5.20;4.10;;;;;;;1.90;100.00;97244.13;5026029;28;20594;-72
2023/01/12 04:54:18;;;;;;;4.67;3.37;;;;;;;1.88;100.00;97247.66;5040650;28;20369;-71
2023/01/12 04:56:46;;;;;;;10.10;4.10;;;;;;;1.90;100.00;97246.75;5047662;28;20199;-73
2023/01/12 04:59:13;;;;;;;4.33;3.97;;;;;;;1.93;100.00;97246.47;5043559;28;20234;-72
2023/01/12 05:01:41;;;;;;;3.77;3.47;;;;;;;1.83;100.00;97252.44;4986504;28;20529;-72
2023/01/12 05:04:09;;;;;;;5.90;3.90;;;;;;;1.80;100.00;97257.13;4993156;28;20450;-73
2023/01/12 05:06:37;;;;;;;5.37;4.13;;;;;;;1.82;100.00;97266.47;5041466;28;20214;-73
2023/01/12 05:11:51;;;;;;;4.17;3.87;;;;;;;1.83;100.00;97262.91;5038949;28;20679;-72
2023/01/12 05:14:18;;;;;;;7.67;4.20;;;;;;;1.87;100.00;97266.91;5024110;28;20213;-72
2023/01/12 05:16:46;;;;;;;9.33;4.60;;;;;;;1.71;100.00;97254.31;5044569;28;20199;-73
2023/01/12 05:19:13;;;;;;;4.77;4.03;;;;;;;1.73;100.00;97262.84;5002947;28;20612;-73
2023/01/12 05:21:42;;;;;;;3.93;3.70;;;;;;;1.71;100.00;97270.00;5018864;28;20312;-72
2023/01/12 05:24:10;;;;;;;4.67;3.60;;;;;;;1.79;100.00;97266.72;5026720;28;20424;-74
2023/01/12 05:26:37;;;;;;;4.50;4.10;;;;;;;1.74;100.00;97258.44;5040610;28;20204;-72
2023/01/12 05:29:07;;;;;;;4.63;3.67;;;;;;;1.79;100.00;97255.47;5023763;28;20333;-73
2023/01/12 05:31:35;;;;;;;5.77;4.00;;;;;;;1.77;100.00;97259.97;5023025;28;20219;-72
2023/01/12 05:34:03;;;;;;;5.53;3.67;;;;;;;1.77;100.00;97252.16;4992973;28;20765;-73
2023/01/12 05:36:30;;;;;;;6.60;3.67;;;;;;;1.77;100.00;97249.53;5035994;28;20199;-73
2023/01/12 05:38:58;;;;;;;6.60;3.97;;;;;;;1.79;100.00;97247.63;5034900;28;20616;-73
2023/01/12 05:41:26;;;;;;;4.20;3.80;;;;;;;1.71;100.00;97254.31;5030355;28;20670;-73
2023/01/12 05:43:53;;;;;;;4.17;3.73;;;;;;;1.71;100.00;97256.94;5042011;28;20552;-72
2023/01/12 05:46:24;;;;;;;4.43;3.70;;;;;;;1.67;100.00;97259.91;5026530;28;20210;-74
2023/01/12 05:48:53;;;;;;;5.53;3.83;;;;;;;1.68;100.00;97264.16;5001090;28;20294;-73
2023/01/12 05:51:21;;;;;;;6.33;3.53;;;;;;;1.63;100.00;97251.47;5034011;28;20293;-75
2023/01/12 05:53:48;;;;;;;4.73;3.87;;;;;;;1.63;100.00;97242.84;5042882;28;20227;-72
2023/01/12 05:56:18;;;;;;;4.87;3.00;;;;;;;1.65;100.00;97253.97;5042011;28;20195;-73
2023/01/12 05:58:50;;;;;;;6.77;3.57;;;;;;;1.66;100.00;97255.63;5043437;28;20203;-72
2023/01/12 06:01:17;;;;;;;7.53;3.70;;;;;;;1.64;100.00;97252.31;5031418;28;20493;-73
2023/01/12 06:03:51;;;;;;;6.57;3.77;;;;;;;1.55;100.00;97246.91;5045011;28;20198;-71
2023/01/12 06:06:19;;;;;;;7.53;3.30;;;;;;;1.48;100.00;97230.06;4999223;28;20202;-75
2023/01/12 06:08:46;;;;;;;7.47;3.27;;;;;;;1.58;100.00;97245.81;5039837;28;20721;-72
2023/01/12 06:13:56;;;;;;;3.73;2.70;;;;;;;1.62;100.00;97236.75;5024419;28;20237;-74
2023/01/12 06:16:24;;;;;;;4.50;3.00;;;;;;;1.64;100.00;97231.44;5020249;28;20198;-73
2023/01/12 06:18:53;;;;;;;10.07;4.03;;;;;;;1.64;100.00;97227.00;5045361;28;20236;-75
2023/01/12 06:21:21;;;;;;;7.23;3.30;;;;;;;1.66;100.00;97235.56;4995473;28;20217;-73
2023/01/12 06:23:49;;;;;;;6.57;3.87;;;;;;;1.62;100.00;97226.31;5038794;28;20230;-75
2023/01/12 06:26:17;;;;;;;4.40;3.43;;;;;;;1.67;100.00;97231.16;5042604;28;20225;-73
2023/01/12 06:28:44;;;;;;;5.03;3.40;;;;;;;1.59;100.00;97237.00;5035963;28;21111;-74
2023/01/12 06:31:13;;;;;;;5.87;2.97;;;;;;;1.55;100.00;97233.00;5034327;28;20571;-71
2023/01/12 06:33:41;;;;;;;4.33;2.83;;;;;;;1.58;100.00;97223.16;5031190;28;20456;-73
2023/01/12 06:36:11;;;;;;;8.73;3.33;;;;;;;1.52;100.00;97228.03;4998998;28;20214;-72
2023/01/12 06:38:38;;;;;;;4.57;3.20;;;;;;;1.48;100.00;97229.25;5035854;28;20257;-70
2023/01/12 06:42:27;;;;;;;4.57;3.37;;;;;;;1.49;100.00;97233.50;5045001;28;20230;-73
2023/01/12 06:43:55;;;;;;;6.27;3.13;;;;;;;1.46;100.00;97234.56;5041257;28;20226;-75
2023/01/12 06:46:23;;;;;;;4.07;3.20;;;;;;;1.45;100.00;97222.47;5033502;28;20211;-72
2023/01/12 06:48:50;;;;;;;3.00;2.77;;;;;;;1.56;100.00;97226.81;5031502;28;20206;-74
2023/01/12 06:51:19;;;;;;;9.87;3.37;;;;;;;1.49;100.00;97217.84;4997232;28;20207;-73
2023/01/12 06:53:47;;;;;;;4.67;3.10;;;;;;;1.64;100.00;97240.06;5040401;28;20230;-75
2023/01/12 06:56:14;;;;;;;6.90;3.70;;;;;;;1.63;100.00;97235.81;5043052;28;20218;-73
2023/01/12 06:58:42;;;;;;;3.77;3.13;;;;;;;1.69;100.00;97231.88;5033888;28;20213;-74
2023/01/12 07:01:10;;;;;;;4.63;2.93;;;;;;;1.77;100.00;97239.91;5040885;28;20207;-72
2023/01/12 07:03:38;;;;;;;3.60;2.97;;;;;;;1.77;100.00;97236.47;5021521;28;20210;-74
2023/01/12 07:06:06;;;;;;;8.53;3.40;;;;;;;1.78;100.00;97233.72;5038933;28;20208;-72
2023/01/12 07:08:35;;;;;;;4.97;3.10;;;;;;;1.81;100.00;97235.25;5001796;28;20417;-75
2023/01/12 07:11:03;;;;;;;7.07;3.03;;;;;;;1.88;100.00;97231.97;4991214;28;20709;-73
2023/01/12 07:13:31;;;;;;;3.53;3.20;;;;;;;1.87;100.00;97227.72;5028583;28;20232;-73
2023/01/12 07:15:59;;;;;;;3.30;2.80;;;;;;;1.93;100.00;97220.34;5034815;28;20423;-72
2023/01/12 07:18:27;;;;;;;5.20;3.03;;;;;;;1.95;100.00;97214.00;5021374;28;20268;-73
2023/01/12 07:20:54;;;;;;;9.90;2.87;;;;;;;1.93;100.00;97230.81;5038402;28;20227;-73
2023/01/12 07:23:22;;;;;;;6.40;3.40;;;;;;;1.88;100.00;97208.47;5035076;28;20210;-74
2023/01/12 07:25:51;;;;;;;6.30;3.63;;;;;;;1.93;100.00;97218.53;4994727;28;20208;-73
2023/01/12 07:28:19;;;;;;;4.17;3.10;;;;;;;2.01;100.00;97216.09;5042117;28;20425;-71
2023/01/12 07:30:46;;;;;;;4.00;2.97;;;;;;;2.01;100.00;97210.06;5034383;28;20591;-73
2023/01/12 07:33:14;;;;;;;5.50;3.13;;;;;;;2.10;100.00;97205.84;5025193;28;20223;-73
2023/01/12 07:35:45;;;;;;;4.97;2.70;;;;;;;2.16;100.00;97206.16;5038524;28;20212;-75
2023/01/12 07:38:12;;;;;;;3.00;2.70;;;;;;;2.13;100.00;97209.03;5038008;28;20222;-73
2023/01/12 07:40:40;;;;;;;8.53;2.77;;;;;;;2.19;100.00;97210.31;4998391;28;20622;-73
2023/01/12 07:43:10;;;;;;;3.30;2.93;;;;;;;2.22;100.00;97196.97;5034786;28;20294;-74
2023/01/12 07:45:38;;;;;;;6.83;3.17;;;;;;;2.35;100.00;97204.59;5038566;28;20221;-74
2023/01/12 07:48:06;;;;;;;3.67;3.40;;;;;;;2.43;100.00;97206.53;5023548;28;20218;-74
2023/01/12 07:50:35;;;;;;;9.60;3.67;;;;;;;2.37;100.00;97189.59;5040099;28;20551;-73
2023/01/12 07:53:04;;;;;;;10.20;3.70;;;;;;;2.49;100.00;97211.25;5036861;28;20223;-72
2023/01/12 07:55:31;;;;;;;4.50;2.73;;;;;;;2.50;100.00;97202.44;5040773;28;20207;-73
2023/01/12 07:58:02;;;;;;;4.60;2.17;;;;;;;2.55;100.00;97196.81;4998140;28;20219;-73
2023/01/12 08:00:31;;;;;;;7.20;3.50;;;;;;;2.50;100.00;97197.22;5041456;28;20229;-72
2023/01/12 08:03:04;;;;;;;3.90;2.37;;;;;;;2.48;100.00;97196.53;5044766;28;20505;-73
2023/01/12 08:05:31;;;;;;;2.60;2.40;;;;;;;2.45;100.00;97194.16;5032573;28;20211;-73
2023/01/12 08:07:59;;;;;;;5.20;2.37;;;;;;;2.51;100.00;97190.19;5040601;28;20696;-72
2023/01/12 08:10:29;;;;;;;3.93;2.40;;;;;;;2.65;100.00;97189.00;5041424;28;20430;-72
2023/01/12 08:12:57;;;;;;;3.30;2.67;;;;;;;2.67;100.00;97189.69;4999884;28;20218;-71
2023/01/12 08:15:26;;;;;;;4.50;3.13;;;;;;;2.76;100.00;97194.09;5044075;28;20203;-74
2023/01/12 08:17:58;;;;;;;3.73;2.20;;;;;;;2.79;100.00;97193.81;5037259;28;20222;-72
2023/01/12 08:20:30;;;;;;;7.77;2.63;;;;;;;2.86;100.00;97194.97;5028761;28;20237;-73
2023/01/12 08:23:02;;;;;;;4.37;2.63;;;;;;;2.87;100.00;97186.16;5040659;28;20203;-71
2023/01/12 08:25:34;;;;;;;3.87;2.53;;;;;;;2.94;100.00;97183.81;5043528;28;20211;-73
2023/01/12 08:28:06;;;;;;;6.53;2.50;;;;;;;2.97;100.00;97183.53;5010209;28;20214;-72
2023/01/12 08:30:34;;;;;;;5.90;2.70;;;;;;;3.10;100.00;97182.47;5047425;28;20218;-74
2023/01/12 08:33:02;;;;;;;7.27;2.77;;;;;;;3.13;100.00;97164.66;5040945;28;20203;-72
2023/01/12 08:35:32;;;;;;;3.50;2.40;;;;;;;3.34;100.00;97182.06;5031779;28;20229;-73
2023/01/12 08:38:00;;;;;;;6.80;2.70;;;;;;;3.33;100.00;97175.97;5038177;28;20265;-71
2023/01/12 08:41:31;;;;;;;3.43;2.13;;;;;;;3.39;100.00;97171.13;5046030;28;20563;-72
2023/01/12 08:44:00;;;;;;;2.63;1.87;;;;;;;3.57;100.00;97160.78;4995445;28;21123;-71
2023/01/12 08:46:06;;;;;;;3.50;2.20;;;;;;;3.68;100.00;97165.03;5044071;28;20297;-74
2023/01/12 08:48:36;;;;;;;2.37;1.93;;;;;;;3.74;100.00;97154.84;5043932;28;20237;-75
2023/01/12 08:51:03;;;;;;;4.30;2.60;;;;;;;3.82;100.00;97159.38;5028514;28;20238;-71
2023/01/12 08:53:31;;;;;;;4.73;2.40;;;;;;;3.83;100.00;97160.19;5042479;28;20375;-76
2023/01/12 08:55:59;;;;;;;3.60;3.13;;;;;;;3.88;100.00;97163.22;5041936;28;20507;-73
2023/01/12 08:58:27;;;;;;;5.00;2.40;;;;;;;3.89;100.00;97163.09;5000354;28;20641;-75
2023/01/12 09:00:55;;;;;;;5.20;2.03;;;;;;;3.91;100.00;97163.75;5039403;28;20219;-73
2023/01/12 09:03:23;;;;;;;5.40;2.30;;;;;;;3.96;100.00;97168.56;5042865;28;20618;-73
2023/01/12 09:05:51;;;;;;;3.67;2.77;;;;;;;4.01;100.00;97181.25;5043832;28;20208;-72
2023/01/12 09:08:19;;;;;;;5.63;2.90;;;;;;;4.00;100.00;97163.88;5027006;28;20326;-74
2023/01/12 09:10:47;;;;;;;2.67;2.10;;;;;;;4.07;100.00;97170.19;5042580;28;20230;-73
2023/01/12 09:13:15;;;;;;;3.30;2.20;;;;;;;4.05;100.00;97162.47;5043296;28;20436;-73
2023/01/12 09:15:42;;;;;;;4.43;2.50;;;;;;;4.11;100.00;97166.31;5000931;28;20305;-73
2023/01/12 09:18:30;;;;;;;5.23;2.20;;;;;;;4.12;100.00;97157.47;4995620;28;20328;-71
2023/01/12 09:21:05;;;;;;;3.30;1.90;;;;;;;4.19;100.00;97153.31;5027675;28;20242;-69
2023/01/12 09:23:33;;;;;;;3.87;2.40;;;;;;;4.27;100.00;97144.72;5042207;28;20869;-73
2023/01/12 09:26:05;;;;;;;12.47;8.90;;;;;;;4.37;100.00;97147.31;5045451;28;20936;-74
2023/01/12 09:28:33;;;;;;;4.00;2.87;;;;;;;4.34;100.00;97140.53;5027667;28;20198;-73
2023/01/12 09:31:02;;;;;;;9.90;4.50;;;;;;;4.38;100.00;97132.41;5040124;28;20195;-73
2023/01/12 09:33:30;;;;;;;5.73;2.73;;;;;;;4.35;100.00;97144.00;4995450;28;20207;-72
2023/01/12 09:36:03;;;;;;;2.47;2.27;;;;;;;4.36;100.00;97143.03;5041522;28;20675;-70
2023/01/12 09:38:31;;;;;;;3.00;2.00;;;;;;;4.25;100.00;97140.59;5041547;28;20199;-73
2023/01/12 09:41:01;;;;;;;5.73;2.10;;;;;;;4.22;100.00;97133.03;5040150;28;20647;-73
2023/01/12 09:49:04;;;;;;;4.67;2.40;;;;;;;4.31;100.00;97140.00;5004582;28;20253;-74
2023/01/12 09:51:37;;;;;;;10.10;2.60;;;;;;;4.32;100.00;97137.22;5043256;28;20204;-72
2023/01/12 09:54:05;;;;;;;6.13;1.83;;;;;;;4.32;100.00;97134.59;5045869;28;20463;-74
2023/01/12 09:56:38;;;;;;;3.30;2.10;;;;;;;4.35;100.00;97131.69;5037529;28;20191;-75
2023/01/12 09:59:21;;;;;;;6.53;2.33;;;;;;;4.37;100.00;97136.81;5040039;28;20517;-73
2023/01/12 10:01:51;;;;;;;14.07;8.90;;;;;;;4.37;100.00;97130.75;5034904;28;20302;-74
2023/01/12 10:04:20;;;;;;;11.33;5.37;;;;;;;4.44;100.00;97132.63;5033179;28;20628;-74
2023/01/12 10:06:48;;;;;;;7.70;2.83;;;;;;;4.44;100.00;97131.81;4985853;28;20615;-75
2023/01/12 10:09:18;;;;;;;5.30;2.27;;;;;;;4.44;100.00;97124.75;5039415;28;20222;-72
2023/01/12 10:11:51;;;;;;;7.27;2.53;;;;;;;4.45;100.00;97133.47;5037585;28;20211;-74
2023/01/12 10:14:44;;;;;;;4.90;1.97;;;;;;;4.49;100.00;97119.06;5024471;28;20674;-73
2023/01/12 10:17:25;;;;;;;5.40;2.67;;;;;;;4.54;100.00;97118.63;5044990;28;20211;-73
2023/01/12 10:20:01;;;;;;;2.83;2.03;;;;;;;4.43;100.00;97109.16;5041236;28;20219;-73
2023/01/12 10:22:37;;;;;;;5.30;1.90;;;;;;;4.54;100.00;97121.25;4991566;28;20309;-72
2023/01/12 10:25:14;;;;;;;5.70;2.13;;;;;;;4.60;100.00;97120.69;5041034;28;20269;-73
2023/01/12 10:27:44;;;;;;;4.10;2.17;;;;;;;4.67;100.00;97131.38;5025832;28;20260;-73
2023/01/12 10:30:15;;;;;;;4.87;2.00;;;;;;;4.68;100.00;97125.16;5047678;28;20219;-74
2023/01/12 10:32:42;;;;;;;2.60;1.93;;;;;;;4.64;100.00;97122.03;5033579;28;20661;-72
2023/01/12 10:35:15;;;;;;;6.07;2.00;;;;;;;4.76;100.00;97122.66;5043503;28;20233;-74
2023/01/12 10:37:45;;;;;;;6.30;3.97;;;;;;;4.87;100.00;97116.31;4995825;28;20219;-71
2023/01/12 10:40:27;;;;;;;5.87;2.20;;;;;;;4.97;100.00;97113.63;5048063;28;20222;-75
2023/01/12 10:43:21;;;;;;;3.67;2.43;;;;;;;5.11;100.00;97112.28;5021551;28;21923;-74
2023/01/12 10:46:09;;;;;;;2.90;2.40;;;;;;;5.22;100.00;97115.50;5036765;28;20199;-74
2023/01/12 10:48:38;;;;;;;5.17;2.67;;;;;;;5.29;100.00;97102.56;5043574;28;20213;-74
2023/01/12 10:51:08;;;;;;;3.33;2.47;;;;;;;5.47;100.00;97099.91;4992665;28;20214;-73
2023/01/12 10:53:41;;;;;;;3.20;2.03;;;;;;;5.55;100.00;97095.72;5036489;28;20681;-73
2023/01/12 10:56:14;;;;;;;2.80;1.93;;;;;;;5.63;100.00;97090.50;5045466;28;20272;-74
2023/01/12 10:58:43;;;;;;;3.80;2.20;;;;;;;5.47;100.00;97081.53;5027345;28;20198;-73
2023/01/12 11:01:14;;;;;;;4.33;2.30;;;;;;;5.44;100.00;97084.47;5041709;28;20202;-73
2023/01/12 11:03:42;;;;;;;5.10;1.90;;;;;;;5.35;100.00;97083.59;5031173;28;20280;-72
2023/01/12 11:06:23;;;;;;;3.03;2.60;;;;;;;5.30;100.00;97066.63;5046216;28;20705;-73
2023/01/12 11:08:52;;;;;;;4.17;3.67;;;;;;;5.28;100.00;97069.41;4997078;28;20335;-73
2023/01/12 11:11:26;;;;;;;7.63;1.73;;;;;;;5.27;100.00;97072.19;5043331;28;20415;-74
2023/01/12 11:13:56;;;;;;;5.07;2.43;;;;;;;5.16;100.00;97066.22;5022206;28;20207;-74
2023/01/12 11:16:25;;;;;;;6.37;3.13;;;;;;;5.18;100.00;97061.63;5045098;28;20601;-75
2023/01/12 11:19:04;;;;;;;3.30;2.20;;;;;;;5.14;100.00;97073.44;5042458;28;20768;-72
2023/01/12 11:21:34;;;;;;;5.67;2.23;;;;;;;5.20;100.00;97061.47;5039860;28;20835;-72
2023/01/12 11:24:05;;;;;;;4.80;2.33;;;;;;;5.18;100.00;97048.50;5001910;28;20706;-73
2023/01/12 11:26:39;;;;;;;3.43;2.30;;;;;;;5.31;100.00;97048.09;4988876;28;20614;-73
2023/01/12 11:29:21;;;;;;;5.43;2.30;;;;;;;5.31;100.00;97031.50;5045703;28;20234;-73
2023/01/12 11:31:50;;;;;;;9.60;2.30;;;;;;;5.49;100.00;97039.34;5045769;28;20202;-73
2023/01/12 11:34:22;;;;;;;6.63;2.60;;;;;;;5.47;100.00;97026.34;5023805;28;20203;-73
2023/01/12 11:36:52;;;;;;;4.17;1.83;;;;;;;5.44;100.00;97024.03;5041379;28;20824;-76
2023/01/12 11:39:23;;;;;;;3.43;2.10;;;;;;;5.44;100.00;97029.28;5043374;28;20214;-70
2023/01/12 11:44:39;;;;;;;3.90;2.13;;;;;;;5.33;100.00;97026.91;5040809;28;20815;-72
2023/01/12 11:47:11;;;;;;;2.60;1.70;;;;;;;5.43;100.00;97018.94;5048969;28;20501;-73
2023/01/12 11:49:42;;;;;;;3.50;2.00;;;;;;;5.44;100.00;97007.44;5042176;28;20219;-73
2023/01/12 11:52:12;;;;;;;3.10;2.00;;;;;;;5.35;100.00;97007.41;5028349;28;20233;-71
2023/01/12 11:54:41;;;;;;;5.47;2.03;;;;;;;5.40;100.00;97011.38;5045235;28;20245;-71
2023/01/12 11:57:22;;;;;;;4.07;2.10;;;;;;;5.32;100.00;96999.84;5026869;28;20211;-73
2023/01/12 12:00:00;;;;;;;5.10;1.97;;;;;;;5.58;100.00;96998.97;5042434;28;20309;-73
2023/01/12 12:02:33;;;;;;;4.53;3.43;;;;;;;5.64;100.00;96994.91;5040916;28;20424;-73
2023/01/12 12:05:10;;;;;;;2.83;2.07;;;;;;;5.69;100.00;97007.59;5047844;28;20227;-73
2023/01/12 12:07:49;;;;;;;4.30;2.10;;;;;;;5.72;100.00;96994.13;5032816;28;20215;-74
2023/01/12 12:10:24;;;;;;;2.87;2.00;;;;;;;5.67;100.00;96989.31;5042597;28;20609;-71
2023/01/12 12:13:11;;;;;;;3.80;2.27;;;;;;;5.65;100.00;96975.50;5003315;28;20221;-72
2023/01/12 12:15:44;;;;;;;3.63;2.07;;;;;;;5.79;100.00;96987.25;5044277;28;20470;-73
2023/01/12 12:18:21;;;;;;;9.63;2.20;;;;;;;5.93;100.00;96986.63;5046553;28;20286;-72
2023/01/12 12:21:00;;;;;;;3.73;2.30;;;;;;;5.98;100.00;96986.16;5038383;28;20245;-74